Time;durP1;ratioP1;P1;durP2;ratioP2;P2;SDS_P1;SDS_P2;PMS_P1;PMS_P2;Temp;Humidity;BMP_temperature;BMP_pressure;BME280_temperature;BME280_humidity;BME280_pressure;Samples;Min_cycle;Max_cycle;Signal;HPM_P1;HPM_P2
2023/02/12 00:00:52;;;;;;;23.02;14.52;;;;;;;;;;6300944;22;20015;-95
2023/02/12 00:03:23;;;;;;;21.67;14.43;;;;;;;;;;6324626;22;20063;-95
2023/02/12 00:05:50;;;;;;;24.40;14.65;;;;;;;;;;6324660;22;20007;-96
2023/02/12 00:08:17;;;;;;;23.00;14.93;;;;;;;;;;6351729;22;20074;-93
2023/02/12 00:10:46;;;;;;;22.45;14.65;;;;;;;;;;6329289;22;20011;-94
2023/02/12 00:13:21;;;;;;;22.00;14.82;;;;;;;;;;6328424;22;20017;-96
2023/02/12 00:15:48;;;;;;;22.52;14.38;;;;;;;;;;6325639;22;20014;-96
2023/02/12 00:18:20;;;;;;;20.83;14.15;;;;;;;;;;6338387;22;20023;-95
2023/02/12 00:20:53;;;;;;;20.83;13.55;;;;;;;;;;6326636;22;20006;-96
2023/02/12 00:23:23;;;;;;;19.17;13.70;;;;;;;;;;6326723;22;20139;-94
2023/02/12 00:25:53;;;;;;;21.13;13.98;;;;;;;;;;6333830;22;20036;-94
2023/02/12 00:28:24;;;;;;;21.40;13.48;;;;;;;;;;6329734;22;20023;-95
2023/02/12 00:30:50;;;;;;;21.00;14.05;;;;;;;;;;6326501;22;20002;-94
2023/02/12 00:33:16;;;;;;;21.75;14.13;;;;;;;;;;6324946;22;20013;-95
2023/02/12 00:35:59;;;;;;;22.73;15.05;;;;;;;;;;6321537;22;20059;-96
2023/02/12 00:38:31;;;;;;;21.88;14.07;;;;;;;;;;6352130;22;20040;-96
2023/02/12 00:41:19;;;;;;;23.38;14.82;;;;;;;;;;6327655;22;20129;-96
2023/02/12 00:43:51;;;;;;;24.98;15.35;;;;;;;;;;6265833;22;20018;-95
2023/02/12 00:46:27;;;;;;;22.20;14.25;;;;;;;;;;6328994;22;20023;-93
2023/02/12 00:49:03;;;;;;;24.35;14.77;;;;;;;;;;6347626;22;20046;-94
2023/02/12 00:51:41;;;;;;;23.95;15.05;;;;;;;;;;6352548;22;20002;-93
2023/02/12 00:54:08;;;;;;;26.05;14.45;;;;;;;;;;6326654;22;20010;-94
2023/02/12 00:56:36;;;;;;;23.10;14.55;;;;;;;;;;6345454;22;20010;-93
2023/02/12 00:59:45;;;;;;;23.23;15.27;;;;;;;;;;6356844;22;20025;-93
2023/02/12 01:02:20;;;;;;;22.20;15.07;;;;;;;;;;6324340;22;20026;-92
2023/02/12 01:05:06;;;;;;;24.40;15.30;;;;;;;;;;6328622;22;20023;-94
2023/02/12 01:07:56;;;;;;;23.70;14.82;;;;;;;;;;6327812;22;19999;-94
2023/02/12 01:10:32;;;;;;;23.85;14.85;;;;;;;;;;6350430;22;20336;-94
2023/02/12 01:13:12;;;;;;;25.45;15.88;;;;;;;;;;6352912;22;20040;-94
2023/02/12 01:15:49;;;;;;;22.88;14.85;;;;;;;;;;6350279;22;19998;-96
2023/02/12 01:18:20;;;;;;;28.17;15.98;;;;;;;;;;6326329;22;20447;-95
2023/02/12 01:21:08;;;;;;;24.52;16.02;;;;;;;;;;6326915;22;20002;-95
2023/02/12 01:23:59;;;;;;;23.05;15.48;;;;;;;;;;6350824;22;20467;-92
2023/02/12 01:27:01;;;;;;;26.17;15.40;;;;;;;;;;6329397;22;20056;-94
2023/02/12 01:29:27;;;;;;;25.23;15.52;;;;;;;;;;6326712;22;20249;-93
2023/02/12 01:31:54;;;;;;;22.30;15.38;;;;;;;;;;6327439;22;20044;-92
2023/02/12 01:34:24;;;;;;;25.00;16.35;;;;;;;;;;6327190;22;20003;-96
2023/02/12 01:37:22;;;;;;;23.80;15.40;;;;;;;;;;6363509;22;20704;-91
2023/02/12 01:39:51;;;;;;;26.58;16.52;;;;;;;;;;6352424;22;20033;-95
2023/02/12 01:42:29;;;;;;;25.70;15.82;;;;;;;;;;6351570;22;20014;-94
2023/02/12 01:45:12;;;;;;;24.98;16.35;;;;;;;;;;6347176;22;20009;-96
2023/02/12 01:48:01;;;;;;;25.00;15.73;;;;;;;;;;6327345;22;20017;-94
2023/02/12 01:50:29;;;;;;;22.67;15.00;;;;;;;;;;6354350;22;20010;-95
2023/02/12 01:53:20;;;;;;;24.67;15.63;;;;;;;;;;6355744;22;20003;-95
2023/02/12 01:56:15;;;;;;;;;;;;;;;;;;;;;
2023/02/12 01:58:43;;;;;;;24.23;15.88;;;;;;;;;;6356610;22;20003;-94
2023/02/12 02:01:20;;;;;;;22.02;14.60;;;;;;;;;;6327846;22;20002;-95
2023/02/12 02:03:54;;;;;;;24.88;15.18;;;;;;;;;;6353888;22;20071;-95
2023/02/12 02:06:43;;;;;;;22.65;15.38;;;;;;;;;;6353840;22;20006;-95
2023/02/12 02:09:20;;;;;;;24.08;15.43;;;;;;;;;;6352681;22;20138;-96
2023/02/12 02:14:41;;;;;;;24.85;15.70;;;;;;;;;;6356496;22;20078;-94
2023/02/12 02:17:20;;;;;;;22.13;14.98;;;;;;;;;;6354349;22;19999;-96
2023/02/12 02:20:06;;;;;;;24.15;15.57;;;;;;;;;;6304991;22;20010;-93
2023/02/12 02:23:03;;;;;;;24.15;15.20;;;;;;;;;;6355941;22;20015;-95
2023/02/12 02:25:52;;;;;;;20.33;13.32;;;;;;;;;;6326636;22;20011;-94
2023/02/12 02:29:01;;;;;;;20.83;13.48;;;;;;;;;;6353770;22;20041;-95
2023/02/12 02:32:11;;;;;;;19.98;13.18;;;;;;;;;;6356967;22;20011;-95
2023/02/12 02:34:56;;;;;;;22.65;14.40;;;;;;;;;;6198073;23;19989;-96
2023/02/12 02:37:45;;;;;;;19.83;13.90;;;;;;;;;;6240489;22;20498;-95
2023/02/12 02:40:33;;;;;;;21.35;13.45;;;;;;;;;;6332294;22;20015;-92
2023/02/12 02:43:24;;;;;;;22.23;14.23;;;;;;;;;;6356529;22;20018;-95
2023/02/12 02:46:23;;;;;;;;;;;;;;;;;;;;;
2023/02/12 02:49:29;;;;;;;21.25;14.60;;;;;;;;;;6354992;22;20485;-94
2023/02/12 02:52:18;;;;;;;23.25;15.88;;;;;;;;;;6360179;22;20332;-95
2023/02/12 02:55:08;;;;;;;23.83;15.00;;;;;;;;;;6331692;22;19983;-96
2023/02/12 03:03:55;;;;;;;21.55;14.25;;;;;;;;;;6344312;22;20015;-92
2023/02/12 03:06:27;;;;;;;21.38;13.27;;;;;;;;;;6324896;22;20033;-96
2023/02/12 03:09:09;;;;;;;;;;;;;;;;;;;;;
2023/02/12 03:11:36;;;;;;;16.50;11.13;;;;;;;;;;6356409;22;20428;-94
2023/02/12 03:14:07;;;;;;;18.30;12.18;;;;;;;;;;6329081;22;20172;-90
2023/02/12 03:16:42;;;;;;;18.83;11.90;;;;;;;;;;6311235;22;20615;-93
2023/02/12 03:19:20;;;;;;;17.83;12.35;;;;;;;;;;6356929;22;20204;-95
2023/02/12 03:22:08;;;;;;;20.90;13.02;;;;;;;;;;6348861;22;20007;-96
2023/02/12 03:24:47;;;;;;;17.33;11.95;;;;;;;;;;6353132;22;20448;-93
2023/02/12 03:27:30;;;;;;;17.17;11.55;;;;;;;;;;6325839;22;20006;-94
2023/02/12 03:30:02;;;;;;;16.42;11.07;;;;;;;;;;6325507;22;20002;-94
2023/02/12 03:32:50;;;;;;;16.35;10.80;;;;;;;;;;6326213;22;20010;-96
2023/02/12 03:35:52;;;;;;;18.38;11.57;;;;;;;;;;6356246;22;20010;-94
2023/02/12 03:38:51;;;;;;;16.55;11.38;;;;;;;;;;6248215;22;20003;-93
2023/02/12 03:41:39;;;;;;;18.65;11.48;;;;;;;;;;6308696;22;20017;-95
2023/02/12 03:44:22;;;;;;;18.63;11.68;;;;;;;;;;6330073;22;20017;-95
2023/02/12 03:47:05;;;;;;;16.53;11.27;;;;;;;;;;6327150;22;19998;-95
2023/02/12 03:49:56;;;;;;;17.20;12.07;;;;;;;;;;6330026;22;19998;-94
2023/02/12 03:52:37;;;;;;;18.10;12.52;;;;;;;;;;6330168;22;20002;-96
2023/02/12 03:55:19;;;;;;;17.20;11.80;;;;;;;;;;6330582;22;20503;-96
2023/02/12 03:57:59;;;;;;;19.52;12.32;;;;;;;;;;6333299;22;20003;-94
2023/02/12 04:00:32;;;;;;;17.83;11.13;;;;;;;;;;6353957;22;20086;-96
2023/02/12 04:03:08;;;;;;;18.60;12.20;;;;;;;;;;6355955;22;20037;-95
2023/02/12 04:05:36;;;;;;;18.23;12.40;;;;;;;;;;6326627;22;20007;-95
2023/02/12 04:08:12;;;;;;;17.23;12.18;;;;;;;;;;6323670;22;20305;-92
2023/02/12 04:10:49;;;;;;;17.70;11.40;;;;;;;;;;6354179;22;20029;-94
2023/02/12 04:13:28;;;;;;;18.50;12.65;;;;;;;;;;6343426;22;20484;-95
2023/02/12 04:16:10;;;;;;;19.35;12.60;;;;;;;;;;6353564;22;20080;-93
2023/02/12 04:18:44;;;;;;;17.83;11.48;;;;;;;;;;6324308;22;20138;-95
2023/02/12 04:21:31;;;;;;;17.13;12.35;;;;;;;;;;6327498;22;20007;-95
2023/02/12 04:24:18;;;;;;;17.27;11.73;;;;;;;;;;6325935;22;20010;-94
2023/02/12 04:26:48;;;;;;;17.75;12.38;;;;;;;;;;6325041;22;20029;-95
2023/02/12 04:29:38;;;;;;;18.80;11.98;;;;;;;;;;6353842;22;20014;-95
2023/02/12 04:32:13;;;;;;;16.95;11.38;;;;;;;;;;6352437;22;20002;-95
2023/02/12 04:35:06;;;;;;;17.83;11.65;;;;;;;;;;6353022;22;20005;-93
2023/02/12 04:37:55;;;;;;;17.03;11.40;;;;;;;;;;6287021;22;19998;-94
2023/02/12 04:40:30;;;;;;;19.45;12.07;;;;;;;;;;6327008;22;20013;-93
2023/02/12 04:43:20;;;;;;;16.00;11.90;;;;;;;;;;6326828;22;20019;-95
2023/02/12 04:45:53;;;;;;;17.10;11.18;;;;;;;;;;6353555;22;20007;-94
2023/02/12 04:48:20;;;;;;;18.08;11.77;;;;;;;;;;6322095;22;20090;-92
2023/02/12 04:51:09;;;;;;;16.50;11.13;;;;;;;;;;6325449;22;20003;-95
2023/02/12 04:53:57;;;;;;;18.60;11.65;;;;;;;;;;6361571;22;19995;-92
2023/02/12 04:56:45;;;;;;;17.92;11.55;;;;;;;;;;6332342;22;20432;-94
2023/02/12 04:59:44;;;;;;;17.95;11.73;;;;;;;;;;6353963;22;20032;-93
2023/02/12 05:02:45;;;;;;;16.67;11.52;;;;;;;;;;6353246;22;20023;-92
2023/02/12 05:05:29;;;;;;;19.13;12.07;;;;;;;;;;6324943;22;20028;-94
2023/02/12 05:08:10;;;;;;;16.35;11.50;;;;;;;;;;6327006;22;20026;-93
2023/02/12 05:10:44;;;;;;;20.38;13.63;;;;;;;;;;6328906;22;20031;-92
2023/02/12 05:13:24;;;;;;;19.20;12.82;;;;;;;;;;6353834;22;19999;-95
2023/02/12 05:16:17;;;;;;;22.25;13.90;;;;;;;;;;6326737;22;20002;-94
2023/02/12 05:19:07;;;;;;;18.88;11.70;;;;;;;;;;6355509;22;20024;-92
2023/02/12 05:22:17;;;;;;;18.48;12.15;;;;;;;;;;6354294;22;20014;-95
2023/02/12 05:25:23;;;;;;;17.58;11.00;;;;;;;;;;6345796;22;20022;-94
2023/02/12 05:27:56;;;;;;;18.90;11.73;;;;;;;;;;6327476;22;20013;-96
2023/02/12 05:30:30;;;;;;;17.20;11.98;;;;;;;;;;6342464;22;19999;-96
2023/02/12 05:32:59;;;;;;;19.40;11.73;;;;;;;;;;6328272;22;20002;-93
2023/02/12 05:36:12;;;;;;;22.60;14.35;;;;;;;;;;6290254;22;20030;-93
2023/02/12 05:38:40;;;;;;;19.30;12.25;;;;;;;;;;6288463;22;20016;-93
2023/02/12 05:41:34;;;;;;;18.05;12.30;;;;;;;;;;6258970;22;19995;-94
2023/02/12 05:44:37;;;;;;;18.65;11.98;;;;;;;;;;6289433;22;20020;-96
2023/02/12 05:47:46;;;;;;;20.48;12.40;;;;;;;;;;6199661;22;20005;-96
2023/02/12 05:50:39;;;;;;;22.13;13.30;;;;;;;;;;6287260;22;20004;-93
2023/02/12 05:53:44;;;;;;;19.05;12.65;;;;;;;;;;6288671;22;20017;-95
2023/02/12 05:56:35;;;;;;;19.10;13.07;;;;;;;;;;6289958;22;20060;-95
2023/02/12 05:59:14;;;;;;;17.10;11.43;;;;;;;;;;6215632;22;20007;-93
2023/02/12 06:02:12;;;;;;;16.70;11.57;;;;;;;;;;6264686;22;19999;-93
2023/02/12 06:04:48;;;;;;;17.63;11.48;;;;;;;;;;6285948;22;20023;-95
2023/02/12 06:07:14;;;;;;;19.50;12.70;;;;;;;;;;6295221;22;20477;-92
2023/02/12 06:09:41;;;;;;;19.88;13.40;;;;;;;;;;6320582;22;20100;-93
2023/02/12 06:12:07;;;;;;;18.35;12.35;;;;;;;;;;6322178;22;20003;-92
2023/02/12 06:14:35;;;;;;;16.73;11.43;;;;;;;;;;6318270;22;20429;-93
2023/02/12 06:17:01;;;;;;;18.70;12.98;;;;;;;;;;6316909;22;20067;-94
2023/02/12 06:19:31;;;;;;;18.13;11.48;;;;;;;;;;6348298;22;20130;-95
2023/02/12 06:22:03;;;;;;;16.60;10.73;;;;;;;;;;6324339;22;20493;-94
2023/02/12 06:24:29;;;;;;;14.50;9.95;;;;;;;;;;6320470;22;20017;-94
2023/02/12 06:26:58;;;;;;;15.55;9.77;;;;;;;;;;6325724;22;20003;-95
2023/02/12 06:29:39;;;;;;;14.27;8.77;;;;;;;;;;6326351;22;20351;-95
2023/02/12 06:32:29;;;;;;;13.45;9.15;;;;;;;;;;6338351;22;20065;-93
2023/02/12 06:35:04;;;;;;;12.98;9.32;;;;;;;;;;6333820;22;20007;-95
2023/02/12 06:37:37;;;;;;;14.40;9.82;;;;;;;;;;6328759;22;20003;-93
2023/02/12 06:40:26;;;;;;;11.45;8.23;;;;;;;;;;6323569;22;20002;-96
2023/02/12 06:45:56;;;;;;;10.00;7.15;;;;;;;;;;6354775;22;20064;-94
2023/02/12 06:48:55;;;;;;;11.45;7.35;;;;;;;;;;6341644;22;20027;-94
2023/02/12 06:51:22;;;;;;;8.90;7.38;;;;;;;;;;6329321;22;19998;-95
2023/02/12 06:54:12;;;;;;;7.93;6.63;;;;;;;;;;6317279;22;20466;-96
2023/02/12 06:57:08;;;;;;;9.77;7.40;;;;;;;;;;6328144;22;20006;-93
2023/02/12 06:59:54;;;;;;;9.07;6.90;;;;;;;;;;6312006;22;20094;-94
2023/02/12 07:02:26;;;;;;;9.20;7.60;;;;;;;;;;6320470;22;20089;-94
2023/02/12 07:04:54;;;;;;;8.82;7.28;;;;;;;;;;6318850;22;20030;-93
2023/02/12 07:07:21;;;;;;;8.90;7.00;;;;;;;;;;6318474;22;20058;-94
2023/02/12 07:09:47;;;;;;;9.40;6.57;;;;;;;;;;6318746;22;20031;-95
2023/02/12 07:12:14;;;;;;;8.75;7.13;;;;;;;;;;6319187;22;20399;-93
2023/02/12 07:15:01;;;;;;;7.72;6.85;;;;;;;;;;6325971;22;20003;-95
2023/02/12 07:21:02;;;;;;;;;;;;;;;;;;;;;
2023/02/12 07:23:23;;;;;;;7.97;5.60;;;;;;;;;;6349948;22;19903;-95
2023/02/12 07:26:01;;;;;;;9.18;6.50;;;;;;;;;;6326224;22;20014;-94
2023/02/12 07:28:34;;;;;;;8.13;5.82;;;;;;;;;;6331956;22;20057;-96
2023/02/12 07:31:33;;;;;;;7.32;5.07;;;;;;;;;;6330579;22;20007;-96
2023/02/12 07:34:09;;;;;;;5.43;4.22;;;;;;;;;;6356301;22;20332;-94
2023/02/12 07:37:11;;;;;;;6.85;4.70;;;;;;;;;;6328655;22;20003;-95
2023/02/12 07:39:57;;;;;;;7.45;4.97;;;;;;;;;;6329107;22;20052;-93
2023/02/12 07:42:54;;;;;;;7.38;4.60;;;;;;;;;;6348363;22;20086;-93
2023/02/12 07:46:02;;;;;;;;;;;;;;;;;;;;;
2023/02/12 07:48:29;;;;;;;7.20;4.88;;;;;;;;;;6351596;22;20007;-93
2023/02/12 07:50:55;;;;;;;6.05;4.40;;;;;;;;;;6322961;22;20011;-94
2023/02/12 07:53:42;;;;;;;8.27;4.65;;;;;;;;;;6332083;22;20003;-93
2023/02/12 07:56:37;;;;;;;6.15;4.30;;;;;;;;;;6312436;22;20023;-94
2023/02/12 07:59:34;;;;;;;;;;;;;;;;;;;;;
2023/02/12 08:02:12;;;;;;;7.10;4.85;;;;;;;;;;6348624;22;20014;-93
2023/02/12 08:04:46;;;;;;;6.40;4.22;;;;;;;;;;6328997;22;20007;-92
2023/02/12 08:07:24;;;;;;;7.00;4.38;;;;;;;;;;6329775;22;20062;-96
2023/02/12 08:09:55;;;;;;;8.07;5.53;;;;;;;;;;6329461;22;20066;-92
2023/02/12 08:12:24;;;;;;;7.90;5.75;;;;;;;;;;6335357;22;20028;-93
2023/02/12 08:14:55;;;;;;;8.63;4.65;;;;;;;;;;6331400;22;20014;-95
2023/02/12 08:17:36;;;;;;;8.18;4.53;;;;;;;;;;6325469;22;20003;-96
2023/02/12 08:20:03;;;;;;;6.90;5.00;;;;;;;;;;6320097;22;20408;-93
2023/02/12 08:22:52;;;;;;;5.93;4.55;;;;;;;;;;6332347;22;20041;-93
2023/02/12 08:28:22;;;;;;;6.90;4.63;;;;;;;;;;6340643;22;19995;-94
2023/02/12 08:31:02;;;;;;;7.80;5.25;;;;;;;;;;6314192;22;20003;-94
2023/02/12 08:33:55;;;;;;;7.53;4.72;;;;;;;;;;6344505;22;20051;-96
2023/02/12 08:36:39;;;;;;;5.97;4.38;;;;;;;;;;6356814;22;20022;-93
2023/02/12 08:39:13;;;;;;;7.65;5.80;;;;;;;;;;6331872;22;20026;-95
2023/02/12 08:41:55;;;;;;;6.93;4.53;;;;;;;;;;6329619;22;20007;-95
2023/02/12 08:44:25;;;;;;;6.70;4.65;;;;;;;;;;6353672;22;20034;-95
2023/02/12 08:47:05;;;;;;;6.53;4.50;;;;;;;;;;6325331;22;20047;-95
2023/02/12 08:49:40;;;;;;;6.25;4.15;;;;;;;;;;6321751;22;20003;-96
2023/02/12 08:52:21;;;;;;;5.43;4.03;;;;;;;;;;6336706;22;19987;-95
2023/02/12 08:55:16;;;;;;;5.82;4.47;;;;;;;;;;6329399;22;20026;-96
2023/02/12 08:57:48;;;;;;;6.13;4.53;;;;;;;;;;6296036;22;20320;-95
2023/02/12 09:00:15;;;;;;;6.82;4.32;;;;;;;;;;6329881;22;20095;-93
2023/02/12 09:02:41;;;;;;;7.25;4.32;;;;;;;;;;6322470;22;20010;-93
2023/02/12 09:05:07;;;;;;;6.30;3.90;;;;;;;;;;6319111;22;20007;-95
2023/02/12 09:08:03;;;;;;;7.03;4.43;;;;;;;;;;6327563;22;20013;-96
2023/02/12 09:10:29;;;;;;;5.95;3.90;;;;;;;;;;6329984;22;20003;-93
2023/02/12 09:16:23;;;;;;;6.15;3.95;;;;;;;;;;6223443;22;20003;-95
2023/02/12 09:19:24;;;;;;;7.50;4.00;;;;;;;;;;6331138;22;20026;-96
2023/02/12 09:22:09;;;;;;;7.18;4.63;;;;;;;;;;6264391;22;20007;-96
2023/02/12 09:24:36;;;;;;;6.75;4.60;;;;;;;;;;6331301;22;20038;-94
2023/02/12 09:27:14;;;;;;;7.82;4.28;;;;;;;;;;6329139;22;19991;-94
2023/02/12 09:29:41;;;;;;;6.45;4.05;;;;;;;;;;6300809;22;20313;-96
2023/02/12 09:32:09;;;;;;;6.32;4.03;;;;;;;;;;6329759;22;20070;-95
2023/02/12 09:34:47;;;;;;;8.00;4.03;;;;;;;;;;6330946;22;20002;-94
2023/02/12 09:37:15;;;;;;;6.88;4.13;;;;;;;;;;6328940;22;20003;-96
2023/02/12 09:40:02;;;;;;;6.60;3.75;;;;;;;;;;6327368;22;19998;-95
2023/02/12 09:43:05;;;;;;;6.32;3.90;;;;;;;;;;6311735;22;20002;-96
2023/02/12 09:48:57;;;;;;;5.88;4.10;;;;;;;;;;6345154;22;20046;-95
2023/02/12 09:51:52;;;;;;;;;;;;;;;;;;;;;
2023/02/12 09:54:28;;;;;;;6.45;3.75;;;;;;;;;;6206381;22;20005;-94
2023/02/12 09:56:59;;;;;;;6.25;4.07;;;;;;;;;;6355187;22;20011;-95
2023/02/12 10:03:02;;;;;;;9.20;4.68;;;;;;;;;;6242915;22;20041;-96
2023/02/12 10:08:35;;;;;;;7.93;5.20;;;;;;;;;;6319250;22;20109;-95
2023/02/12 10:11:51;;;;;;;7.38;4.38;;;;;;;;;;6305844;22;20003;-93
2023/02/12 10:14:32;;;;;;;7.40;4.28;;;;;;;;;;6353493;22;19991;-94
2023/02/12 10:20:12;;;;;;;6.85;3.70;;;;;;;;;;6345888;22;20027;-93
2023/02/12 10:23:02;;;;;;;5.90;2.80;;;;;;;;;;6307262;22;20021;-96
2023/02/12 10:25:50;;;;;;;6.03;3.13;;;;;;;;;;6298738;22;20078;-95
2023/02/12 10:31:31;;;;;;;7.43;3.75;;;;;;;;;;6349803;22;20018;-94
2023/02/12 10:34:00;;;;;;;6.45;3.40;;;;;;;;;;6331184;22;20006;-93
2023/02/12 10:36:36;;;;;;;5.35;3.03;;;;;;;;;;6324034;22;20402;-93
2023/02/12 10:39:31;;;;;;;5.38;2.92;;;;;;;;;;6324167;22;20012;-96
2023/02/12 10:44:36;;;;;;;6.30;2.78;;;;;;;;;;6317909;22;20071;-94
2023/02/12 10:47:30;;;;;;;5.65;2.97;;;;;;;;;;6302548;22;20008;-94
2023/02/12 10:49:59;;;;;;;7.57;3.22;;;;;;;;;;6314148;22;20029;-95
2023/02/12 11:02:28;;;;;;;5.22;2.80;;;;;;;;;;6307798;22;20023;-95
2023/02/12 11:04:59;;;;;;;5.88;3.13;;;;;;;;;;6333436;22;20003;-92
2023/02/12 11:11:14;;;;;;;6.18;2.97;;;;;;;;;;6143195;23;20010;-96
2023/02/12 11:19:35;;;;;;;8.52;3.10;;;;;;;;;;6300051;22;20026;-95
2023/02/12 11:22:18;;;;;;;6.20;2.80;;;;;;;;;;6311693;22;20100;-95
2023/02/12 11:36:52;;;;;;;5.80;2.90;;;;;;;;;;6276216;22;20119;-94
2023/02/12 11:39:54;;;;;;;;;;;;;;;;;;;;;
2023/02/12 11:46:15;;;;;;;4.68;2.50;;;;;;;;;;6317969;22;20040;-95
2023/02/12 11:57:33;;;;;;;7.40;2.60;;;;;;;;;;6236170;23;20042;-94
2023/02/12 12:03:41;;;;;;;5.88;2.72;;;;;;;;;;6359297;22;20230;-95
2023/02/12 12:07:01;;;;;;;4.93;2.40;;;;;;;;;;6332611;22;20109;-94
2023/02/12 12:09:52;;;;;;;6.65;2.60;;;;;;;;;;6349720;22;20037;-94
2023/02/12 12:12:37;;;;;;;5.60;2.72;;;;;;;;;;6270662;22;20052;-95
2023/02/12 12:20:50;;;;;;;5.55;2.42;;;;;;;;;;6356241;22;20021;-94
2023/02/12 12:23:24;;;;;;;4.97;2.40;;;;;;;;;;6332874;22;20725;-94
2023/02/12 12:26:02;;;;;;;5.20;2.60;;;;;;;;;;6324654;22;20419;-96
2023/02/12 12:28:55;;;;;;;5.75;2.40;;;;;;;;;;6335340;22;19991;-96
2023/02/12 12:32:06;;;;;;;6.03;2.75;;;;;;;;;;6337563;22;20068;-93
2023/02/12 12:34:43;;;;;;;7.55;2.95;;;;;;;;;;6205923;23;20009;-96
2023/02/12 12:37:40;;;;;;;6.22;2.60;;;;;;;;;;6263906;22;20014;-94
2023/02/12 12:40:32;;;;;;;7.82;3.70;;;;;;;;;;6268707;22;20009;-94
2023/02/12 12:43:35;;;;;;;6.72;3.00;;;;;;;;;;6336874;22;19995;-94
2023/02/12 12:48:58;;;;;;;5.07;3.03;;;;;;;;;;6357586;22;20065;-93
2023/02/12 12:51:29;;;;;;;7.60;3.30;;;;;;;;;;6351646;22;20006;-94
2023/02/12 12:54:07;;;;;;;7.65;3.05;;;;;;;;;;6352418;22;19991;-96
2023/02/12 12:56:54;;;;;;;8.23;3.78;;;;;;;;;;6327900;22;20007;-94
2023/02/12 12:59:46;;;;;;;6.45;2.80;;;;;;;;;;6329851;22;20002;-93
2023/02/12 13:05:41;;;;;;;5.53;2.30;;;;;;;;;;6340416;22;20018;-96
2023/02/12 13:08:10;;;;;;;5.78;2.60;;;;;;;;;;6316386;22;20128;-94
2023/02/12 13:11:04;;;;;;;5.43;3.05;;;;;;;;;;6323941;22;19987;-92
2023/02/12 13:13:49;;;;;;;5.63;2.22;;;;;;;;;;6361177;22;20023;-94
2023/02/12 13:16:54;;;;;;;5.38;2.30;;;;;;;;;;6356994;22;20048;-96
2023/02/12 13:19:48;;;;;;;7.10;2.90;;;;;;;;;;6200463;22;20005;-96
2023/02/12 13:22:22;;;;;;;7.95;3.53;;;;;;;;;;6340732;22;20017;-96
2023/02/12 13:25:16;;;;;;;5.43;2.85;;;;;;;;;;6356362;22;19991;-94
2023/02/12 13:28:06;;;;;;;6.63;2.75;;;;;;;;;;6177199;23;20013;-93
2023/02/12 13:30:39;;;;;;;4.93;2.70;;;;;;;;;;6183596;23;20039;-95
2023/02/12 13:33:31;;;;;;;8.52;3.83;;;;;;;;;;6318715;22;20007;-96
2023/02/12 13:36:24;;;;;;;9.35;4.05;;;;;;;;;;6178689;23;20005;-95
2023/02/12 13:39:23;;;;;;;8.68;4.22;;;;;;;;;;6186720;23;20008;-95
2023/02/12 13:42:16;;;;;;;6.90;3.42;;;;;;;;;;6153984;23;20001;-95
2023/02/12 13:44:50;;;;;;;7.38;2.63;;;;;;;;;;6296097;22;20246;-96
2023/02/12 13:47:40;;;;;;;5.80;2.75;;;;;;;;;;6326422;22;20006;-95
2023/02/12 13:50:43;;;;;;;6.22;2.58;;;;;;;;;;6356162;22;20021;-93
2023/02/12 13:53:15;;;;;;;5.90;2.58;;;;;;;;;;6360158;22;19999;-95
2023/02/12 13:56:17;;;;;;;;;;;;;;;;;;;;;
2023/02/12 13:59:10;;;;;;;;;;;;;;;;;;;;;
2023/02/12 14:02:06;;;;;;;4.97;2.75;;;;;;;;;;6337718;22;20046;-96
2023/02/12 14:08:23;;;;;;;4.93;2.60;;;;;;;;;;6325777;22;20014;-94
2023/02/12 14:11:15;;;;;;;6.78;2.90;;;;;;;;;;6278691;22;20023;-95
2023/02/12 14:14:28;;;;;;;5.47;2.67;;;;;;;;;;6313520;22;20011;-94
2023/02/12 14:16:54;;;;;;;5.15;2.65;;;;;;;;;;6326327;22;20018;-94
2023/02/12 14:19:42;;;;;;;4.65;2.35;;;;;;;;;;6332982;22;20051;-96
2023/02/12 14:22:37;;;;;;;8.10;2.88;;;;;;;;;;6362275;22;20011;-95
2023/02/12 14:25:25;;;;;;;6.78;2.60;;;;;;;;;;6331730;22;20018;-96
2023/02/12 14:28:22;;;;;;;7.30;2.80;;;;;;;;;;6357935;22;19999;-94
2023/02/12 14:31:44;;;;;;;5.55;2.70;;;;;;;;;;6360742;22;20033;-93
2023/02/12 14:35:00;;;;;;;5.05;2.70;;;;;;;;;;6359087;22;20031;-95
2023/02/12 14:37:43;;;;;;;5.20;2.70;;;;;;;;;;6201799;23;20013;-94
2023/02/12 14:40:39;;;;;;;7.32;3.20;;;;;;;;;;6199853;23;20009;-96
2023/02/12 14:43:28;;;;;;;7.53;3.15;;;;;;;;;;6156285;23;20083;-94
2023/02/12 14:46:19;;;;;;;10.65;3.95;;;;;;;;;;6173810;23;20001;-93
2023/02/12 14:49:03;;;;;;;;;;;;;;;;;;;;;
2023/02/12 14:51:48;;;;;;;9.65;4.47;;;;;;;;;;6246571;22;19987;-92
2023/02/12 14:54:33;;;;;;;9.32;3.50;;;;;;;;;;6332772;22;20373;-94
2023/02/12 14:57:05;;;;;;;6.95;2.90;;;;;;;;;;6326956;22;20136;-95
2023/02/12 14:59:39;;;;;;;8.57;3.10;;;;;;;;;;6351269;22;20007;-93
2023/02/12 15:02:13;;;;;;;9.35;3.50;;;;;;;;;;6326307;22;20070;-95
2023/02/12 15:04:44;;;;;;;9.48;3.50;;;;;;;;;;6325738;22;20071;-93
2023/02/12 15:07:16;;;;;;;8.07;3.35;;;;;;;;;;6319690;22;20022;-95
2023/02/12 15:09:59;;;;;;;6.65;2.90;;;;;;;;;;6327276;22;20048;-95
2023/02/12 15:12:35;;;;;;;10.00;3.17;;;;;;;;;;6326555;22;20014;-93
2023/02/12 15:15:19;;;;;;;5.93;2.80;;;;;;;;;;6324161;22;19991;-94
2023/02/12 15:17:54;;;;;;;6.35;3.28;;;;;;;;;;6330396;22;20007;-94
2023/02/12 15:20:23;;;;;;;10.85;3.38;;;;;;;;;;6324351;22;20006;-96
2023/02/12 15:22:56;;;;;;;8.77;3.03;;;;;;;;;;6353835;22;20010;-94
2023/02/12 15:25:25;;;;;;;8.85;3.58;;;;;;;;;;6347209;22;20055;-96
2023/02/12 15:28:16;;;;;;;8.23;3.55;;;;;;;;;;6325685;22;20320;-94
2023/02/12 15:30:43;;;;;;;8.20;3.55;;;;;;;;;;6305040;22;20018;-96
2023/02/12 15:33:31;;;;;;;7.20;3.15;;;;;;;;;;6312882;22;20015;-95
2023/02/12 15:36:00;;;;;;;8.52;3.55;;;;;;;;;;6324934;22;20031;-95
2023/02/12 15:38:51;;;;;;;;;;;;;;;;;;;;;
2023/02/12 15:41:30;;;;;;;6.65;2.78;;;;;;;;;;6348760;22;20033;-96
2023/02/12 15:43:57;;;;;;;9.25;3.40;;;;;;;;;;6325969;22;20035;-94
2023/02/12 15:46:30;;;;;;;5.82;2.78;;;;;;;;;;6326983;22;20071;-96
2023/02/12 15:48:58;;;;;;;7.65;3.47;;;;;;;;;;6318768;22;20014;-95
2023/02/12 15:51:27;;;;;;;9.32;3.40;;;;;;;;;;6299096;22;20093;-96
2023/02/12 15:54:16;;;;;;;6.30;3.00;;;;;;;;;;6325573;22;20022;-96
2023/02/12 15:56:45;;;;;;;8.13;3.35;;;;;;;;;;6326056;22;20010;-94
2023/02/12 15:59:25;;;;;;;7.20;2.90;;;;;;;;;;6304172;22;20010;-96
2023/02/12 16:02:02;;;;;;;7.53;3.20;;;;;;;;;;6330334;22;20002;-96
2023/02/12 16:04:40;;;;;;;8.70;3.00;;;;;;;;;;6328265;22;20014;-94
2023/02/12 16:07:13;;;;;;;9.60;3.30;;;;;;;;;;6323857;22;20048;-96
2023/02/12 16:09:48;;;;;;;9.80;3.10;;;;;;;;;;6328059;22;20003;-95
2023/02/12 16:12:16;;;;;;;7.20;3.13;;;;;;;;;;6329715;22;20047;-94
2023/02/12 16:14:45;;;;;;;7.72;4.18;;;;;;;;;;6328832;22;20002;-96
2023/02/12 16:17:27;;;;;;;8.25;3.90;;;;;;;;;;6327516;22;20054;-95
2023/02/12 16:19:58;;;;;;;12.05;6.53;;;;;;;;;;6326271;22;20006;-94
2023/02/12 16:22:27;;;;;;;12.57;6.15;;;;;;;;;;6328041;22;20002;-96
2023/02/12 16:24:59;;;;;;;13.07;6.55;;;;;;;;;;6357039;22;20014;-94
2023/02/12 16:27:42;;;;;;;13.25;6.30;;;;;;;;;;6354716;22;20009;-96
2023/02/12 16:30:37;;;;;;;37.08;15.23;;;;;;;;;;6326467;22;20006;-95
2023/02/12 16:35:41;;;;;;;48.53;16.85;;;;;;;;;;6359210;22;20448;-93
2023/02/12 16:38:07;;;;;;;24.17;11.40;;;;;;;;;;6322412;22;20006;-94
2023/02/12 16:40:42;;;;;;;33.28;13.90;;;;;;;;;;6325173;22;20003;-95
2023/02/12 16:43:25;;;;;;;21.05;9.90;;;;;;;;;;6306116;22;20019;-96
2023/02/12 16:46:01;;;;;;;29.30;11.38;;;;;;;;;;6325752;22;19998;-95
2023/02/12 16:48:38;;;;;;;37.47;15.90;;;;;;;;;;6330681;22;20003;-95
2023/02/12 16:51:06;;;;;;;31.63;13.77;;;;;;;;;;6323711;22;20007;-95
2023/02/12 16:53:44;;;;;;;27.95;13.30;;;;;;;;;;6334000;22;20046;-93
2023/02/12 16:56:20;;;;;;;23.90;11.48;;;;;;;;;;6304997;22;20007;-95
2023/02/12 16:58:49;;;;;;;22.60;11.60;;;;;;;;;;6321013;22;20392;-92
2023/02/12 17:01:18;;;;;;;23.98;12.00;;;;;;;;;;6327126;22;20014;-96
2023/02/12 17:03:46;;;;;;;22.33;9.40;;;;;;;;;;6298552;22;20098;-94
2023/02/12 17:06:13;;;;;;;28.00;10.65;;;;;;;;;;6296471;22;20007;-94
2023/02/12 17:08:40;;;;;;;55.35;22.73;;;;;;;;;;6325068;22;20006;-95
2023/02/12 17:11:08;;;;;;;180.95;63.33;;;;;;;;;;6305982;22;20007;-95
2023/02/12 17:13:34;;;;;;;83.35;32.28;;;;;;;;;;6328200;22;20010;-93
2023/02/12 17:16:00;;;;;;;95.93;37.50;;;;;;;;;;6322605;22;20064;-94
2023/02/12 17:18:37;;;;;;;50.25;22.67;;;;;;;;;;6318400;22;20019;-96
2023/02/12 17:21:07;;;;;;;57.47;25.60;;;;;;;;;;6317469;22;20003;-96
2023/02/12 17:23:33;;;;;;;56.22;26.48;;;;;;;;;;6321395;22;20011;-96
2023/02/12 17:26:00;;;;;;;53.67;26.17;;;;;;;;;;6322917;22;20065;-96
2023/02/12 17:28:27;;;;;;;88.05;35.03;;;;;;;;;;6346488;22;20030;-95
2023/02/12 17:31:01;;;;;;;72.78;33.38;;;;;;;;;;6322948;22;20003;-96
2023/02/12 17:39:38;;;;;;;58.28;26.90;;;;;;;;;;6350171;22;20026;-96
2023/02/12 17:42:28;;;;;;;47.72;23.58;;;;;;;;;;6325762;22;20002;-96
2023/02/12 17:44:55;;;;;;;82.93;38.45;;;;;;;;;;6324664;22;20026;-96
2023/02/12 17:47:21;;;;;;;67.30;31.17;;;;;;;;;;6313885;22;20003;-95
2023/02/12 17:49:48;;;;;;;57.78;27.88;;;;;;;;;;6314146;22;20005;-96
2023/02/12 17:52:14;;;;;;;50.20;24.77;;;;;;;;;;6312994;22;20053;-96